sensor_id;sensor_type;location;lat;lon;timestamp;temperature;humidity
52381;DHT22;38310;52.796;6.942;2023-06-22T00:00:51;18.20;99.90
52381;DHT22;38310;52.796;6.942;2023-06-22T00:03:18;18.20;99.90
52381;DHT22;38310;52.796;6.942;2023-06-22T00:05:45;18.10;99.90
52381;DHT22;38310;52.796;6.942;2023-06-22T00:08:11;18.10;99.90
52381;DHT22;38310;52.796;6.942;2023-06-22T00:10:37;18.10;99.90
52381;DHT22;38310;52.796;6.942;2023-06-22T00:13:03;18.10;99.90
52381;DHT22;38310;52.796;6.942;2023-06-22T00:15:29;18.10;99.90
52381;DHT22;38310;52.796;6.942;2023-06-22T00:17:55;18.10;99.90
52381;DHT22;38310;52.796;6.942;2023-06-22T00:20:23;18.10;99.90
52381;DHT22;38310;52.796;6.942;2023-06-22T00:22:53;18.10;99.90
52381;DHT22;38310;52.796;6.942;2023-06-22T00:25:19;18.00;99.90
52381;DHT22;38310;52.796;6.942;2023-06-22T00:27:45;18.00;99.90
52381;DHT22;38310;52.796;6.942;2023-06-22T00:30:11;18.00;99.90
52381;DHT22;38310;52.796;6.942;2023-06-22T00:32:37;18.00;99.90
52381;DHT22;38310;52.796;6.942;2023-06-22T00:35:03;18.00;99.90
52381;DHT22;38310;52.796;6.942;2023-06-22T00:37:29;18.00;99.90
52381;DHT22;38310;52.796;6.942;2023-06-22T00:39:55;18.00;99.90
52381;DHT22;38310;52.796;6.942;2023-06-22T00:42:21;18.00;99.90
52381;DHT22;38310;52.796;6.942;2023-06-22T00:44:47;18.00;99.90
52381;DHT22;38310;52.796;6.942;2023-06-22T00:47:17;17.90;99.90
52381;DHT22;38310;52.796;6.942;2023-06-22T00:49:43;17.90;99.90
52381;DHT22;38310;52.796;6.942;2023-06-22T00:52:10;17.80;99.90
52381;DHT22;38310;52.796;6.942;2023-06-22T00:54:42;17.80;99.90
52381;DHT22;38310;52.796;6.942;2023-06-22T00:57:15;17.80;99.90
52381;DHT22;38310;52.796;6.942;2023-06-22T00:59:45;17.70;99.90
52381;DHT22;38310;52.796;6.942;2023-06-22T01:02:11;17.70;99.90
52381;DHT22;38310;52.796;6.942;2023-06-22T01:04:38;17.70;99.90
52381;DHT22;38310;52.796;6.942;2023-06-22T01:07:28;17.60;99.90
52381;DHT22;38310;52.796;6.942;2023-06-22T01:10:25;17.60;99.90
52381;DHT22;38310;52.796;6.942;2023-06-22T01:13:02;17.60;99.90
52381;DHT22;38310;52.796;6.942;2023-06-22T01:16:02;17.50;99.90
52381;DHT22;38310;52.796;6.942;2023-06-22T01:18:31;17.30;99.90
52381;DHT22;38310;52.796;6.942;2023-06-22T01:21:00;17.40;99.90
52381;DHT22;38310;52.796;6.942;2023-06-22T01:29:01;17.30;99.90
52381;DHT22;38310;52.796;6.942;2023-06-22T01:31:29;17.30;99.90
52381;DHT22;38310;52.796;6.942;2023-06-22T01:33:59;17.30;99.90
52381;DHT22;38310;52.796;6.942;2023-06-22T01:36:26;17.20;99.90
52381;DHT22;38310;52.796;6.942;2023-06-22T01:38:53;17.20;99.90
52381;DHT22;38310;52.796;6.942;2023-06-22T01:41:24;17.20;99.90
52381;DHT22;38310;52.796;6.942;2023-06-22T01:43:51;17.20;99.90
52381;DHT22;38310;52.796;6.942;2023-06-22T01:46:18;17.20;99.90
52381;DHT22;38310;52.796;6.942;2023-06-22T01:48:45;17.20;99.90
52381;DHT22;38310;52.796;6.942;2023-06-22T01:51:12;17.10;99.90
52381;DHT22;38310;52.796;6.942;2023-06-22T01:53:37;17.10;99.90
52381;DHT22;38310;52.796;6.942;2023-06-22T01:56:04;17.00;99.90
52381;DHT22;38310;52.796;6.942;2023-06-22T01:58:31;17.10;99.90
52381;DHT22;38310;52.796;6.942;2023-06-22T02:01:08;17.00;99.90
52381;DHT22;38310;52.796;6.942;2023-06-22T02:03:38;17.00;99.90
52381;DHT22;38310;52.796;6.942;2023-06-22T02:06:08;17.00;99.90
52381;DHT22;38310;52.796;6.942;2023-06-22T02:08:47;16.90;99.90
52381;DHT22;38310;52.796;6.942;2023-06-22T02:11:15;16.90;99.90
52381;DHT22;38310;52.796;6.942;2023-06-22T02:13:41;16.90;99.90
52381;DHT22;38310;52.796;6.942;2023-06-22T02:16:10;16.90;99.90
52381;DHT22;38310;52.796;6.942;2023-06-22T02:18:36;16.80;99.90
52381;DHT22;38310;52.796;6.942;2023-06-22T02:21:03;16.80;99.90
52381;DHT22;38310;52.796;6.942;2023-06-22T02:23:28;16.70;99.90
52381;DHT22;38310;52.796;6.942;2023-06-22T02:25:54;16.70;99.90
52381;DHT22;38310;52.796;6.942;2023-06-22T02:28:20;16.70;99.90
52381;DHT22;38310;52.796;6.942;2023-06-22T02:30:46;16.70;99.90
52381;DHT22;38310;52.796;6.942;2023-06-22T02:33:11;16.70;99.90
52381;DHT22;38310;52.796;6.942;2023-06-22T02:35:37;16.70;99.90
52381;DHT22;38310;52.796;6.942;2023-06-22T02:38:04;16.60;99.90
52381;DHT22;38310;52.796;6.942;2023-06-22T02:40:30;16.60;99.90
52381;DHT22;38310;52.796;6.942;2023-06-22T02:42:56;16.60;99.90
52381;DHT22;38310;52.796;6.942;2023-06-22T02:45:23;16.60;99.90
52381;DHT22;38310;52.796;6.942;2023-06-22T02:47:49;16.60;99.90
52381;DHT22;38310;52.796;6.942;2023-06-22T02:50:15;16.50;99.90
52381;DHT22;38310;52.796;6.942;2023-06-22T02:52:41;16.50;99.90
52381;DHT22;38310;52.796;6.942;2023-06-22T02:55:07;16.50;99.90
52381;DHT22;38310;52.796;6.942;2023-06-22T02:57:33;16.50;99.90
52381;DHT22;38310;52.796;6.942;2023-06-22T02:59:59;16.50;99.90
52381;DHT22;38310;52.796;6.942;2023-06-22T03:02:25;16.40;99.90
52381;DHT22;38310;52.796;6.942;2023-06-22T03:04:52;16.40;99.90
52381;DHT22;38310;52.796;6.942;2023-06-22T03:07:20;16.40;99.90
52381;DHT22;38310;52.796;6.942;2023-06-22T03:09:46;16.40;99.90
52381;DHT22;38310;52.796;6.942;2023-06-22T03:12:11;16.40;99.90
52381;DHT22;38310;52.796;6.942;2023-06-22T03:14:37;16.40;99.90
52381;DHT22;38310;52.796;6.942;2023-06-22T03:17:04;16.30;99.90
52381;DHT22;38310;52.796;6.942;2023-06-22T03:19:30;16.30;99.90
52381;DHT22;38310;52.796;6.942;2023-06-22T03:22:00;16.20;99.90
52381;DHT22;38310;52.796;6.942;2023-06-22T03:24:26;16.30;99.90
52381;DHT22;38310;52.796;6.942;2023-06-22T03:26:54;16.30;99.90
52381;DHT22;38310;52.796;6.942;2023-06-22T03:29:20;16.30;99.90
52381;DHT22;38310;52.796;6.942;2023-06-22T03:31:45;16.20;99.90
52381;DHT22;38310;52.796;6.942;2023-06-22T03:34:11;16.20;99.90
52381;DHT22;38310;52.796;6.942;2023-06-22T03:36:37;16.30;99.90
52381;DHT22;38310;52.796;6.942;2023-06-22T03:39:03;16.30;99.90
52381;DHT22;38310;52.796;6.942;2023-06-22T03:41:28;16.30;99.90
52381;DHT22;38310;52.796;6.942;2023-06-22T03:43:54;15.70;99.90
52381;DHT22;38310;52.796;6.942;2023-06-22T03:46:20;16.30;99.90
52381;DHT22;38310;52.796;6.942;2023-06-22T03:48:45;16.30;99.90
52381;DHT22;38310;52.796;6.942;2023-06-22T03:51:11;16.30;99.90
52381;DHT22;38310;52.796;6.942;2023-06-22T03:53:37;16.40;99.90
52381;DHT22;38310;52.796;6.942;2023-06-22T03:56:03;16.30;99.90
52381;DHT22;38310;52.796;6.942;2023-06-22T03:58:29;16.40;99.90
52381;DHT22;38310;52.796;6.942;2023-06-22T04:00:58;16.40;99.90
52381;DHT22;38310;52.796;6.942;2023-06-22T04:03:25;16.40;99.90
52381;DHT22;38310;52.796;6.942;2023-06-22T04:05:51;16.30;99.90
52381;DHT22;38310;52.796;6.942;2023-06-22T04:08:17;16.40;99.90
52381;DHT22;38310;52.796;6.942;2023-06-22T04:10:43;16.30;99.90
52381;DHT22;38310;52.796;6.942;2023-06-22T04:13:09;16.40;99.90
52381;DHT22;38310;52.796;6.942;2023-06-22T04:15:35;16.40;99.90
52381;DHT22;38310;52.796;6.942;2023-06-22T04:18:01;16.40;99.90
52381;DHT22;38310;52.796;6.942;2023-06-22T04:20:26;16.40;99.90
52381;DHT22;38310;52.796;6.942;2023-06-22T04:22:53;16.40;99.90
52381;DHT22;38310;52.796;6.942;2023-06-22T04:25:19;16.40;99.90
52381;DHT22;38310;52.796;6.942;2023-06-22T04:27:45;16.50;99.90
52381;DHT22;38310;52.796;6.942;2023-06-22T04:30:11;16.50;99.90
52381;DHT22;38310;52.796;6.942;2023-06-22T04:32:41;16.50;99.90
52381;DHT22;38310;52.796;6.942;2023-06-22T04:35:07;16.50;99.90
52381;DHT22;38310;52.796;6.942;2023-06-22T04:37:33;16.50;99.90
52381;DHT22;38310;52.796;6.942;2023-06-22T04:40:00;16.50;99.90
52381;DHT22;38310;52.796;6.942;2023-06-22T04:42:28;16.50;99.90
52381;DHT22;38310;52.796;6.942;2023-06-22T04:44:54;16.50;99.90
52381;DHT22;38310;52.796;6.942;2023-06-22T04:47:20;16.50;99.90
52381;DHT22;38310;52.796;6.942;2023-06-22T04:49:46;16.50;99.90
52381;DHT22;38310;52.796;6.942;2023-06-22T04:52:12;16.50;99.90
52381;DHT22;38310;52.796;6.942;2023-06-22T04:54:40;16.50;99.90
52381;DHT22;38310;52.796;6.942;2023-06-22T04:57:13;16.50;99.90
52381;DHT22;38310;52.796;6.942;2023-06-22T04:59:40;16.50;99.90
52381;DHT22;38310;52.796;6.942;2023-06-22T05:02:07;16.60;99.90
52381;DHT22;38310;52.796;6.942;2023-06-22T05:04:34;16.50;99.90
52381;DHT22;38310;52.796;6.942;2023-06-22T05:07:04;16.60;99.90
52381;DHT22;38310;52.796;6.942;2023-06-22T05:09:30;16.70;99.90
52381;DHT22;38310;52.796;6.942;2023-06-22T05:11:56;16.70;99.90
52381;DHT22;38310;52.796;6.942;2023-06-22T05:14:22;16.70;99.90
52381;DHT22;38310;52.796;6.942;2023-06-22T05:16:49;16.80;99.90
52381;DHT22;38310;52.796;6.942;2023-06-22T05:19:15;16.80;99.90
52381;DHT22;38310;52.796;6.942;2023-06-22T05:21:40;16.90;99.90
52381;DHT22;38310;52.796;6.942;2023-06-22T05:24:07;16.90;99.90
52381;DHT22;38310;52.796;6.942;2023-06-22T05:26:34;17.00;99.90
52381;DHT22;38310;52.796;6.942;2023-06-22T05:29:01;17.00;99.90
52381;DHT22;38310;52.796;6.942;2023-06-22T05:31:27;17.10;99.90
52381;DHT22;38310;52.796;6.942;2023-06-22T05:33:54;17.20;99.90
52381;DHT22;38310;52.796;6.942;2023-06-22T05:36:21;17.30;99.90
52381;DHT22;38310;52.796;6.942;2023-06-22T05:38:51;17.30;99.90
52381;DHT22;38310;52.796;6.942;2023-06-22T05:41:17;17.40;99.90
52381;DHT22;38310;52.796;6.942;2023-06-22T05:43:43;17.50;99.90
52381;DHT22;38310;52.796;6.942;2023-06-22T05:46:08;17.60;99.90
52381;DHT22;38310;52.796;6.942;2023-06-22T05:48:34;17.60;99.90
52381;DHT22;38310;52.796;6.942;2023-06-22T05:51:00;17.20;99.90
52381;DHT22;38310;52.796;6.942;2023-06-22T05:53:26;18.00;99.90
52381;DHT22;38310;52.796;6.942;2023-06-22T05:55:52;18.10;99.90
52381;DHT22;38310;52.796;6.942;2023-06-22T05:58:17;18.20;99.90
52381;DHT22;38310;52.796;6.942;2023-06-22T06:00:43;18.30;99.90
52381;DHT22;38310;52.796;6.942;2023-06-22T06:03:10;18.40;99.90
52381;DHT22;38310;52.796;6.942;2023-06-22T06:05:36;18.50;99.90
52381;DHT22;38310;52.796;6.942;2023-06-22T06:08:05;18.70;99.90
52381;DHT22;38310;52.796;6.942;2023-06-22T06:10:35;18.70;99.90
52381;DHT22;38310;52.796;6.942;2023-06-22T06:13:01;18.80;99.90
52381;DHT22;38310;52.796;6.942;2023-06-22T06:15:30;18.90;99.90
52381;DHT22;38310;52.796;6.942;2023-06-22T06:17:56;19.00;99.90
52381;DHT22;38310;52.796;6.942;2023-06-22T06:20:23;19.10;99.90
52381;DHT22;38310;52.796;6.942;2023-06-22T06:22:49;19.20;99.90
52381;DHT22;38310;52.796;6.942;2023-06-22T06:25:16;19.30;99.90
52381;DHT22;38310;52.796;6.942;2023-06-22T06:27:45;19.40;99.90
52381;DHT22;38310;52.796;6.942;2023-06-22T06:30:13;19.50;99.90
52381;DHT22;38310;52.796;6.942;2023-06-22T06:32:39;19.60;99.90
52381;DHT22;38310;52.796;6.942;2023-06-22T06:35:07;19.80;99.90
52381;DHT22;38310;52.796;6.942;2023-06-22T06:37:36;19.90;99.90
52381;DHT22;38310;52.796;6.942;2023-06-22T06:40:04;20.10;99.90
52381;DHT22;38310;52.796;6.942;2023-06-22T06:42:31;20.20;99.90
52381;DHT22;38310;52.796;6.942;2023-06-22T06:44:57;20.30;99.90
52381;DHT22;38310;52.796;6.942;2023-06-22T06:47:22;20.40;99.90
52381;DHT22;38310;52.796;6.942;2023-06-22T06:49:48;20.60;99.90
52381;DHT22;38310;52.796;6.942;2023-06-22T06:52:14;20.60;99.90
52381;DHT22;38310;52.796;6.942;2023-06-22T06:54:40;20.70;99.90
52381;DHT22;38310;52.796;6.942;2023-06-22T06:57:07;20.70;99.90
52381;DHT22;38310;52.796;6.942;2023-06-22T06:59:36;20.70;99.90
52381;DHT22;38310;52.796;6.942;2023-06-22T07:02:01;20.70;99.90
52381;DHT22;38310;52.796;6.942;2023-06-22T07:04:27;20.80;99.90
52381;DHT22;38310;52.796;6.942;2023-06-22T07:06:53;20.90;99.90
52381;DHT22;38310;52.796;6.942;2023-06-22T07:09:19;21.00;99.90
52381;DHT22;38310;52.796;6.942;2023-06-22T07:11:44;21.10;99.90
52381;DHT22;38310;52.796;6.942;2023-06-22T07:14:10;21.20;99.90
52381;DHT22;38310;52.796;6.942;2023-06-22T07:16:36;21.30;99.90
52381;DHT22;38310;52.796;6.942;2023-06-22T07:19:01;21.30;99.90
52381;DHT22;38310;52.796;6.942;2023-06-22T07:21:27;21.50;99.90
52381;DHT22;38310;52.796;6.942;2023-06-22T07:23:53;21.60;99.90
52381;DHT22;38310;52.796;6.942;2023-06-22T07:26:19;21.70;99.90
52381;DHT22;38310;52.796;6.942;2023-06-22T07:28:45;21.80;99.90
52381;DHT22;38310;52.796;6.942;2023-06-22T07:31:11;22.00;99.90
52381;DHT22;38310;52.796;6.942;2023-06-22T07:33:36;22.00;99.90
52381;DHT22;38310;52.796;6.942;2023-06-22T07:36:02;22.20;99.90
52381;DHT22;38310;52.796;6.942;2023-06-22T07:38:33;22.40;99.90
52381;DHT22;38310;52.796;6.942;2023-06-22T07:41:00;22.50;99.90
52381;DHT22;38310;52.796;6.942;2023-06-22T07:43:26;22.70;99.90
52381;DHT22;38310;52.796;6.942;2023-06-22T07:45:51;22.90;99.90
52381;DHT22;38310;52.796;6.942;2023-06-22T07:48:20;23.10;99.90
52381;DHT22;38310;52.796;6.942;2023-06-22T07:50:46;23.20;99.90
52381;DHT22;38310;52.796;6.942;2023-06-22T07:53:12;23.20;99.90
52381;DHT22;38310;52.796;6.942;2023-06-22T07:55:38;23.40;99.90
52381;DHT22;38310;52.796;6.942;2023-06-22T07:58:03;23.40;99.90
52381;DHT22;38310;52.796;6.942;2023-06-22T08:00:29;23.50;99.90
52381;DHT22;38310;52.796;6.942;2023-06-22T08:02:55;23.60;99.90
52381;DHT22;38310;52.796;6.942;2023-06-22T08:05:20;23.70;99.90
52381;DHT22;38310;52.796;6.942;2023-06-22T08:07:46;23.90;99.90
52381;DHT22;38310;52.796;6.942;2023-06-22T08:10:12;24.00;99.90
52381;DHT22;38310;52.796;6.942;2023-06-22T08:12:41;24.10;99.90
52381;DHT22;38310;52.796;6.942;2023-06-22T08:15:08;24.40;99.90
52381;DHT22;38310;52.796;6.942;2023-06-22T08:17:36;24.40;99.90
52381;DHT22;38310;52.796;6.942;2023-06-22T08:20:03;24.40;99.90
52381;DHT22;38310;52.796;6.942;2023-06-22T08:22:35;24.70;99.90
52381;DHT22;38310;52.796;6.942;2023-06-22T08:25:02;24.90;99.90
52381;DHT22;38310;52.796;6.942;2023-06-22T08:27:29;25.10;99.90
52381;DHT22;38310;52.796;6.942;2023-06-22T08:30:00;25.30;99.90
52381;DHT22;38310;52.796;6.942;2023-06-22T08:32:27;25.40;99.90
52381;DHT22;38310;52.796;6.942;2023-06-22T08:34:54;25.60;99.90
52381;DHT22;38310;52.796;6.942;2023-06-22T08:37:20;25.60;99.90
52381;DHT22;38310;52.796;6.942;2023-06-22T08:39:46;25.60;99.90
52381;DHT22;38310;52.796;6.942;2023-06-22T08:42:12;25.90;99.90
52381;DHT22;38310;52.796;6.942;2023-06-22T08:44:38;26.00;99.90
52381;DHT22;38310;52.796;6.942;2023-06-22T08:47:04;26.10;99.90
52381;DHT22;38310;52.796;6.942;2023-06-22T08:49:29;26.20;99.90
52381;DHT22;38310;52.796;6.942;2023-06-22T08:51:55;26.40;99.90
52381;DHT22;38310;52.796;6.942;2023-06-22T08:54:22;26.50;99.90
52381;DHT22;38310;52.796;6.942;2023-06-22T08:56:48;26.60;99.90
52381;DHT22;38310;52.796;6.942;2023-06-22T08:59:14;26.60;99.90
52381;DHT22;38310;52.796;6.942;2023-06-22T09:01:40;26.60;99.90
52381;DHT22;38310;52.796;6.942;2023-06-22T09:04:06;26.60;99.90
52381;DHT22;38310;52.796;6.942;2023-06-22T09:06:34;26.80;99.90
52381;DHT22;38310;52.796;6.942;2023-06-22T09:09:00;26.80;99.90
52381;DHT22;38310;52.796;6.942;2023-06-22T09:11:26;26.80;99.90
52381;DHT22;38310;52.796;6.942;2023-06-22T09:13:51;26.90;99.90
52381;DHT22;38310;52.796;6.942;2023-06-22T09:16:19;26.90;99.90
52381;DHT22;38310;52.796;6.942;2023-06-22T09:18:48;26.90;99.90
52381;DHT22;38310;52.796;6.942;2023-06-22T09:21:14;27.20;99.90
52381;DHT22;38310;52.796;6.942;2023-06-22T09:23:40;27.40;99.90
52381;DHT22;38310;52.796;6.942;2023-06-22T09:26:06;27.40;99.90
52381;DHT22;38310;52.796;6.942;2023-06-22T09:28:32;27.50;99.90
52381;DHT22;38310;52.796;6.942;2023-06-22T09:30:59;27.70;99.90
52381;DHT22;38310;52.796;6.942;2023-06-22T09:33:26;27.90;99.90
52381;DHT22;38310;52.796;6.942;2023-06-22T09:35:52;27.70;99.90
52381;DHT22;38310;52.796;6.942;2023-06-22T09:38:17;27.90;99.90
52381;DHT22;38310;52.796;6.942;2023-06-22T09:40:43;27.80;99.90
52381;DHT22;38310;52.796;6.942;2023-06-22T09:43:10;27.90;99.90
52381;DHT22;38310;52.796;6.942;2023-06-22T09:45:37;28.00;99.90
52381;DHT22;38310;52.796;6.942;2023-06-22T09:48:02;27.90;99.90
52381;DHT22;38310;52.796;6.942;2023-06-22T09:50:28;28.10;99.90
52381;DHT22;38310;52.796;6.942;2023-06-22T09:52:54;28.20;99.90
52381;DHT22;38310;52.796;6.942;2023-06-22T09:55:21;28.20;99.90
52381;DHT22;38310;52.796;6.942;2023-06-22T09:57:47;28.50;99.90
52381;DHT22;38310;52.796;6.942;2023-06-22T10:00:14;28.60;99.90
52381;DHT22;38310;52.796;6.942;2023-06-22T10:02:43;28.80;99.90
52381;DHT22;38310;52.796;6.942;2023-06-22T10:05:09;28.80;99.90
52381;DHT22;38310;52.796;6.942;2023-06-22T10:07:35;28.90;99.90
52381;DHT22;38310;52.796;6.942;2023-06-22T10:10:06;29.20;99.90
52381;DHT22;38310;52.796;6.942;2023-06-22T10:12:32;29.40;99.90
52381;DHT22;38310;52.796;6.942;2023-06-22T10:14:58;29.50;99.90
52381;DHT22;38310;52.796;6.942;2023-06-22T10:17:23;29.70;99.90
52381;DHT22;38310;52.796;6.942;2023-06-22T10:19:49;29.80;99.90
52381;DHT22;38310;52.796;6.942;2023-06-22T10:22:15;29.90;99.90
52381;DHT22;38310;52.796;6.942;2023-06-22T10:24:40;29.90;99.90
52381;DHT22;38310;52.796;6.942;2023-06-22T10:27:13;30.00;99.90
52381;DHT22;38310;52.796;6.942;2023-06-22T10:29:39;30.10;99.90
52381;DHT22;38310;52.796;6.942;2023-06-22T10:32:05;30.00;99.90
52381;DHT22;38310;52.796;6.942;2023-06-22T10:34:31;30.10;99.90
52381;DHT22;38310;52.796;6.942;2023-06-22T10:36:57;30.00;99.90
52381;DHT22;38310;52.796;6.942;2023-06-22T10:39:22;30.20;99.90
52381;DHT22;38310;52.796;6.942;2023-06-22T10:41:48;30.30;99.90
52381;DHT22;38310;52.796;6.942;2023-06-22T10:44:14;30.40;99.90
52381;DHT22;38310;52.796;6.942;2023-06-22T10:46:40;30.60;99.90
52381;DHT22;38310;52.796;6.942;2023-06-22T10:49:05;30.50;99.90
52381;DHT22;38310;52.796;6.942;2023-06-22T10:51:31;30.80;99.90
52381;DHT22;38310;52.796;6.942;2023-06-22T10:53:57;30.80;99.90
52381;DHT22;38310;52.796;6.942;2023-06-22T10:56:23;30.90;99.90
52381;DHT22;38310;52.796;6.942;2023-06-22T10:58:49;31.10;99.90
52381;DHT22;38310;52.796;6.942;2023-06-22T11:01:15;31.20;99.90
52381;DHT22;38310;52.796;6.942;2023-06-22T11:03:41;31.20;99.90
52381;DHT22;38310;52.796;6.942;2023-06-22T11:06:06;31.40;99.90
52381;DHT22;38310;52.796;6.942;2023-06-22T11:08:32;31.40;99.90
52381;DHT22;38310;52.796;6.942;2023-06-22T11:10:58;31.50;99.90
52381;DHT22;38310;52.796;6.942;2023-06-22T11:13:24;31.50;99.90
52381;DHT22;38310;52.796;6.942;2023-06-22T11:15:50;31.40;99.90
52381;DHT22;38310;52.796;6.942;2023-06-22T11:18:16;31.30;99.90
52381;DHT22;38310;52.796;6.942;2023-06-22T11:20:42;31.10;99.70
52381;DHT22;38310;52.796;6.942;2023-06-22T11:23:08;30.90;99.80
52381;DHT22;38310;52.796;6.942;2023-06-22T11:25:34;30.70;99.50
52381;DHT22;38310;52.796;6.942;2023-06-22T11:28:04;30.80;99.90
52381;DHT22;38310;52.796;6.942;2023-06-22T11:30:30;30.60;99.90
52381;DHT22;38310;52.796;6.942;2023-06-22T11:32:59;30.60;99.90
52381;DHT22;38310;52.796;6.942;2023-06-22T11:35:25;30.60;99.40
52381;DHT22;38310;52.796;6.942;2023-06-22T11:37:51;30.40;99.60
52381;DHT22;38310;52.796;6.942;2023-06-22T11:40:16;30.30;99.60
52381;DHT22;38310;52.796;6.942;2023-06-22T11:42:43;30.00;99.40
52381;DHT22;38310;52.796;6.942;2023-06-22T11:45:09;29.90;99.60
52381;DHT22;38310;52.796;6.942;2023-06-22T11:47:35;29.80;99.80
52381;DHT22;38310;52.796;6.942;2023-06-22T11:50:02;29.80;99.90
52381;DHT22;38310;52.796;6.942;2023-06-22T11:52:28;29.70;99.90
52381;DHT22;38310;52.796;6.942;2023-06-22T11:54:54;29.70;99.90
52381;DHT22;38310;52.796;6.942;2023-06-22T11:57:19;29.50;99.70
52381;DHT22;38310;52.796;6.942;2023-06-22T11:59:45;29.50;99.90
52381;DHT22;38310;52.796;6.942;2023-06-22T12:02:11;29.60;99.90
52381;DHT22;38310;52.796;6.942;2023-06-22T12:04:36;29.60;99.90
52381;DHT22;38310;52.796;6.942;2023-06-22T12:07:03;29.60;99.90
52381;DHT22;38310;52.796;6.942;2023-06-22T12:09:29;29.60;99.90
52381;DHT22;38310;52.796;6.942;2023-06-22T12:11:55;29.70;99.90
52381;DHT22;38310;52.796;6.942;2023-06-22T12:14:21;29.60;99.70
52381;DHT22;38310;52.796;6.942;2023-06-22T12:16:46;29.60;99.90
52381;DHT22;38310;52.796;6.942;2023-06-22T12:19:12;29.50;99.90
52381;DHT22;38310;52.796;6.942;2023-06-22T12:21:38;29.40;99.70
52381;DHT22;38310;52.796;6.942;2023-06-22T12:24:06;29.40;99.90
52381;DHT22;38310;52.796;6.942;2023-06-22T12:26:31;29.20;99.70
52381;DHT22;38310;52.796;6.942;2023-06-22T12:28:57;29.20;99.70
52381;DHT22;38310;52.796;6.942;2023-06-22T12:31:23;29.20;99.90
52381;DHT22;38310;52.796;6.942;2023-06-22T12:33:48;29.10;99.90
52381;DHT22;38310;52.796;6.942;2023-06-22T12:36:14;29.00;99.90
52381;DHT22;38310;52.796;6.942;2023-06-22T12:38:41;29.20;99.90
52381;DHT22;38310;52.796;6.942;2023-06-22T12:41:07;29.10;99.50
52381;DHT22;38310;52.796;6.942;2023-06-22T12:43:33;29.00;99.50
52381;DHT22;38310;52.796;6.942;2023-06-22T12:45:59;28.80;99.70
52381;DHT22;38310;52.796;6.942;2023-06-22T12:48:26;28.60;99.60
52381;DHT22;38310;52.796;6.942;2023-06-22T12:50:53;28.60;99.80
52381;DHT22;38310;52.796;6.942;2023-06-22T12:53:18;28.40;99.80
52381;DHT22;38310;52.796;6.942;2023-06-22T12:55:44;28.30;99.90
52381;DHT22;38310;52.796;6.942;2023-06-22T12:58:10;28.20;99.90
52381;DHT22;38310;52.796;6.942;2023-06-22T13:00:35;28.10;99.90
52381;DHT22;38310;52.796;6.942;2023-06-22T13:03:01;27.90;99.90
52381;DHT22;38310;52.796;6.942;2023-06-22T13:05:27;27.90;99.90
52381;DHT22;38310;52.796;6.942;2023-06-22T13:07:53;27.80;99.90
52381;DHT22;38310;52.796;6.942;2023-06-22T13:10:18;27.60;99.90
52381;DHT22;38310;52.796;6.942;2023-06-22T13:12:44;27.60;99.90
52381;DHT22;38310;52.796;6.942;2023-06-22T13:15:10;27.50;99.90
52381;DHT22;38310;52.796;6.942;2023-06-22T13:17:35;27.40;99.90
52381;DHT22;38310;52.796;6.942;2023-06-22T13:20:01;27.30;99.90
52381;DHT22;38310;52.796;6.942;2023-06-22T13:22:34;27.30;99.90
52381;DHT22;38310;52.796;6.942;2023-06-22T13:25:05;27.30;99.90
52381;DHT22;38310;52.796;6.942;2023-06-22T13:27:32;27.30;99.90
52381;DHT22;38310;52.796;6.942;2023-06-22T13:29:57;27.30;99.90
52381;DHT22;38310;52.796;6.942;2023-06-22T13:32:23;27.20;99.90
52381;DHT22;38310;52.796;6.942;2023-06-22T13:34:49;27.10;99.90
52381;DHT22;38310;52.796;6.942;2023-06-22T13:37:15;27.10;99.90
52381;DHT22;38310;52.796;6.942;2023-06-22T13:39:41;27.10;99.90
52381;DHT22;38310;52.796;6.942;2023-06-22T13:42:07;27.10;99.90
52381;DHT22;38310;52.796;6.942;2023-06-22T13:44:32;27.00;99.90
52381;DHT22;38310;52.796;6.942;2023-06-22T13:46:58;27.10;99.90
52381;DHT22;38310;52.796;6.942;2023-06-22T13:49:24;27.00;99.90
52381;DHT22;38310;52.796;6.942;2023-06-22T13:51:50;26.90;99.90
52381;DHT22;38310;52.796;6.942;2023-06-22T13:54:16;26.90;99.90
52381;DHT22;38310;52.796;6.942;2023-06-22T13:56:42;26.90;99.90
52381;DHT22;38310;52.796;6.942;2023-06-22T13:59:08;26.90;99.90
52381;DHT22;38310;52.796;6.942;2023-06-22T14:01:36;26.90;99.90
52381;DHT22;38310;52.796;6.942;2023-06-22T14:04:02;26.80;99.90
52381;DHT22;38310;52.796;6.942;2023-06-22T14:06:28;26.80;99.90
52381;DHT22;38310;52.796;6.942;2023-06-22T14:08:53;26.80;99.90
52381;DHT22;38310;52.796;6.942;2023-06-22T14:11:19;26.60;99.90
52381;DHT22;38310;52.796;6.942;2023-06-22T14:13:45;26.60;99.90
52381;DHT22;38310;52.796;6.942;2023-06-22T14:16:10;26.50;99.90
52381;DHT22;38310;52.796;6.942;2023-06-22T14:18:36;26.50;99.90
52381;DHT22;38310;52.796;6.942;2023-06-22T14:21:02;26.50;99.90
52381;DHT22;38310;52.796;6.942;2023-06-22T14:23:27;26.40;99.90
52381;DHT22;38310;52.796;6.942;2023-06-22T14:25:53;26.30;99.90
52381;DHT22;38310;52.796;6.942;2023-06-22T14:28:19;26.30;99.90
52381;DHT22;38310;52.796;6.942;2023-06-22T14:30:45;26.30;99.90
52381;DHT22;38310;52.796;6.942;2023-06-22T14:33:12;26.30;99.90
52381;DHT22;38310;52.796;6.942;2023-06-22T14:35:37;26.20;99.90
52381;DHT22;38310;52.796;6.942;2023-06-22T14:38:03;26.20;99.90
52381;DHT22;38310;52.796;6.942;2023-06-22T14:40:29;26.20;99.90
52381;DHT22;38310;52.796;6.942;2023-06-22T14:42:55;26.20;99.90
52381;DHT22;38310;52.796;6.942;2023-06-22T14:45:22;26.10;99.90
52381;DHT22;38310;52.796;6.942;2023-06-22T14:47:48;26.20;99.90
52381;DHT22;38310;52.796;6.942;2023-06-22T14:50:14;26.10;99.90
52381;DHT22;38310;52.796;6.942;2023-06-22T14:52:40;26.10;99.90
52381;DHT22;38310;52.796;6.942;2023-06-22T14:55:06;25.90;99.90
52381;DHT22;38310;52.796;6.942;2023-06-22T14:57:32;26.00;99.90
52381;DHT22;38310;52.796;6.942;2023-06-22T14:59:57;25.90;99.90
52381;DHT22;38310;52.796;6.942;2023-06-22T15:02:23;25.80;99.90
52381;DHT22;38310;52.796;6.942;2023-06-22T15:04:49;25.80;99.90
52381;DHT22;38310;52.796;6.942;2023-06-22T15:07:15;25.70;99.90
52381;DHT22;38310;52.796;6.942;2023-06-22T15:09:40;25.60;99.90
52381;DHT22;38310;52.796;6.942;2023-06-22T15:12:08;25.50;99.90
52381;DHT22;38310;52.796;6.942;2023-06-22T15:14:40;25.40;99.90
52381;DHT22;38310;52.796;6.942;2023-06-22T15:17:07;25.30;99.90
52381;DHT22;38310;52.796;6.942;2023-06-22T15:19:38;25.20;99.90
52381;DHT22;38310;52.796;6.942;2023-06-22T15:22:07;25.10;99.90
52381;DHT22;38310;52.796;6.942;2023-06-22T15:24:34;25.00;99.90
52381;DHT22;38310;52.796;6.942;2023-06-22T15:27:00;24.80;99.90
52381;DHT22;38310;52.796;6.942;2023-06-22T15:29:26;24.60;99.90
52381;DHT22;38310;52.796;6.942;2023-06-22T15:31:52;24.40;99.90